createdAt,value
2017-12-03T00:02:18.221Z,102625.39
2017-12-03T00:04:47.286Z,102630.61
2017-12-03T00:07:15.598Z,102619.84
2017-12-03T00:09:45.389Z,102616.73
2017-12-03T00:12:14.590Z,102605.77
2017-12-03T00:14:43.714Z,102606.80
2017-12-03T00:17:12.960Z,102611.30
2017-12-03T00:19:41.268Z,102606.19
2017-12-03T00:22:09.659Z,102608.30
2017-12-03T00:24:38.745Z,102605.53
2017-12-03T00:27:07.068Z,102591.74
2017-12-03T00:29:35.366Z,102595.59
2017-12-03T00:32:03.676Z,102597.80
2017-12-03T00:34:32.070Z,102593.05
2017-12-03T00:37:01.155Z,102585.47
2017-12-03T00:39:29.484Z,102582.48
2017-12-03T00:41:57.805Z,102580.59
2017-12-03T00:44:26.132Z,102583.33
2017-12-03T00:46:55.218Z,102582.48
2017-12-03T00:49:23.552Z,102588.63
2017-12-03T00:51:51.861Z,102582.48
2017-12-03T00:54:20.169Z,102584.38
2017-12-03T00:56:49.235Z,102584.28
2017-12-03T00:59:17.578Z,102584.64
2017-12-03T01:01:45.900Z,102587.89
2017-12-03T01:04:14.220Z,102575.20
2017-12-03T01:06:43.300Z,102579.16
2017-12-03T01:09:12.383Z,102577.41
2017-12-03T01:11:40.698Z,102579.94
2017-12-03T01:14:09.833Z,102582.28
2017-12-03T01:16:38.136Z,102569.83
2017-12-03T01:19:06.468Z,102568.14
2017-12-03T01:21:34.794Z,102574.67
2017-12-03T01:24:03.902Z,102566.94
2017-12-03T01:26:32.233Z,102555.86
2017-12-03T01:29:01.153Z,102556.16
2017-12-03T01:31:29.464Z,102559.72
2017-12-03T01:33:58.568Z,102555.51
2017-12-03T01:36:27.653Z,102557.38
2017-12-03T01:38:55.948Z,102551.20
2017-12-03T01:41:24.268Z,102550.57
2017-12-03T01:43:52.589Z,102546.88
2017-12-03T01:46:20.944Z,102543.26
2017-12-03T01:48:49.259Z,102548.07
2017-12-03T01:51:17.585Z,102548.88
2017-12-03T01:53:45.978Z,102542.23
2017-12-03T01:56:14.285Z,102537.11
2017-12-03T01:58:42.597Z,102537.11
2017-12-03T02:01:10.928Z,102539.99
2017-12-03T02:03:39.356Z,102540.35
2017-12-03T02:06:07.836Z,102534.21
2017-12-03T02:08:36.180Z,102532.28
2017-12-03T02:11:06.041Z,102534.77
2017-12-03T02:13:34.350Z,102535.30
2017-12-03T02:16:02.662Z,102537.83
2017-12-03T02:18:30.976Z,102533.74
2017-12-03T02:21:00.046Z,102527.18
2017-12-03T02:23:28.362Z,102531.94
2017-12-03T02:25:56.708Z,102522.47
2017-12-03T02:28:25.042Z,102519.92
2017-12-03T02:30:54.111Z,102516.72
2017-12-03T02:33:22.438Z,102516.33
2017-12-03T02:35:50.769Z,102515.91
2017-12-03T02:38:19.105Z,102513.08
2017-12-03T02:40:47.408Z,102503.34
2017-12-03T02:43:15.720Z,102506.52
2017-12-03T02:45:44.815Z,102495.01
2017-12-03T02:48:13.187Z,102495.62
2017-12-03T02:50:41.492Z,102483.20
2017-12-03T02:53:10.580Z,102488.44
2017-12-03T02:55:38.901Z,102494.62
2017-12-03T02:58:07.232Z,102488.21
2017-12-03T03:00:35.614Z,102488.47
2017-12-03T03:03:04.200Z,102481.00
2017-12-03T03:05:32.514Z,102479.45
2017-12-03T03:08:00.836Z,102481.29
2017-12-03T03:10:29.166Z,102479.70
2017-12-03T03:12:58.336Z,102487.79
2017-12-03T03:15:26.650Z,102480.25
2017-12-03T03:17:55.786Z,102480.52
2017-12-03T03:20:24.872Z,102475.73
2017-12-03T03:22:53.186Z,102468.80
2017-12-03T03:25:21.520Z,102460.79
2017-12-03T03:27:49.840Z,102460.30
2017-12-03T03:30:18.155Z,102462.31
2017-12-03T03:32:47.337Z,102459.69
2017-12-03T03:35:15.656Z,102455.09
2017-12-03T03:37:44.737Z,102451.67
2017-12-03T03:40:13.056Z,102455.58
2017-12-03T03:42:41.362Z,102451.25
2017-12-03T03:45:09.678Z,102448.34
2017-12-03T03:47:38.029Z,102456.04
2017-12-03T03:50:06.346Z,102450.12
2017-12-03T03:52:35.562Z,102455.78
2017-12-03T03:55:03.873Z,102454.16
2017-12-03T03:57:32.190Z,102454.19
2017-12-03T04:00:00.492Z,102452.80
2017-12-03T04:02:29.735Z,102452.44
2017-12-03T04:04:58.062Z,102451.38
2017-12-03T04:07:26.384Z,102443.77
2017-12-03T04:09:54.700Z,102436.92
2017-12-03T04:12:23.054Z,102442.39
2017-12-03T04:14:51.376Z,102441.26
2017-12-03T04:17:19.674Z,102446.75
2017-12-03T04:19:47.984Z,102439.41
2017-12-03T04:22:16.311Z,102445.56
2017-12-03T04:24:44.667Z,102445.69
2017-12-03T04:27:12.972Z,102440.03
2017-12-03T04:29:41.292Z,102447.20
2017-12-03T04:32:10.369Z,102440.25
2017-12-03T04:34:38.687Z,102440.13
2017-12-03T04:37:07.018Z,102443.55
2017-12-03T04:39:35.454Z,102438.31
2017-12-03T04:42:03.786Z,102441.67
2017-12-03T04:44:32.096Z,102439.73
2017-12-03T04:47:00.409Z,102444.46
2017-12-03T04:49:28.729Z,102438.73
2017-12-03T04:51:57.825Z,102443.13
2017-12-03T04:54:27.647Z,102437.67
2017-12-03T04:56:55.963Z,102431.27
2017-12-03T04:59:24.301Z,102437.15
2017-12-03T05:01:52.709Z,102434.63
2017-12-03T05:04:21.802Z,102433.66
2017-12-03T05:06:50.875Z,102433.61
2017-12-03T05:09:19.419Z,102435.52
2017-12-03T05:11:47.742Z,102424.14
2017-12-03T05:14:16.051Z,102428.47
2017-12-03T05:16:45.138Z,102422.58
2017-12-03T05:19:13.458Z,102428.82
2017-12-03T05:21:41.889Z,102427.33
2017-12-03T05:24:10.209Z,102422.45
2017-12-03T05:26:38.537Z,102420.55
2017-12-03T05:29:06.856Z,102418.52
2017-12-03T05:31:35.932Z,102426.53
2017-12-03T05:34:05.019Z,102421.36
2017-12-03T05:36:33.339Z,102421.95
2017-12-03T05:39:02.430Z,102420.68
2017-12-03T05:41:31.508Z,102418.25
2017-12-03T05:43:59.808Z,102419.97
2017-12-03T05:46:28.147Z,102419.69
2017-12-03T05:48:56.445Z,102424.80
2017-12-03T05:51:24.764Z,102421.56
2017-12-03T05:53:53.086Z,102423.60
2017-12-03T05:56:21.383Z,102422.34
2017-12-03T05:58:49.678Z,102421.98
2017-12-03T06:01:18.083Z,102421.98
2017-12-03T06:03:47.228Z,102419.63
2017-12-03T06:06:15.540Z,102414.73
2017-12-03T06:08:44.040Z,102410.83
2017-12-03T06:11:13.265Z,102406.23
2017-12-03T06:13:41.566Z,102406.16
2017-12-03T06:16:09.867Z,102409.68
2017-12-03T06:18:38.177Z,102412.14
2017-12-03T06:21:07.267Z,102413.53
2017-12-03T06:23:35.587Z,102411.30
2017-12-03T06:26:03.893Z,102409.75
2017-12-03T06:28:32.211Z,102408.20
2017-12-03T06:31:00.535Z,102416.09
2017-12-03T06:33:28.841Z,102418.96
2017-12-03T06:35:57.152Z,102408.84
2017-12-03T06:38:26.243Z,102405.77
2017-12-03T06:40:54.552Z,102417.86
2017-12-03T06:43:23.619Z,102413.58
2017-12-03T06:45:53.440Z,102416.89
2017-12-03T06:48:22.521Z,102420.16
2017-12-03T06:50:50.835Z,102414.62
2017-12-03T06:53:19.908Z,102420.77
2017-12-03T06:55:48.215Z,102423.87
2017-12-03T06:58:19.147Z,102426.45
2017-12-03T07:00:48.233Z,102422.70
2017-12-03T07:03:16.557Z,102422.77
2017-12-03T07:05:44.910Z,102422.47
2017-12-03T07:08:13.993Z,102420.79
2017-12-03T07:10:43.860Z,102421.22
2017-12-03T07:13:12.178Z,102424.99
2017-12-03T07:15:40.523Z,102426.74
2017-12-03T07:18:08.848Z,102433.59
2017-12-03T07:20:37.924Z,102425.27
2017-12-03T07:23:06.394Z,102423.89
2017-12-03T07:25:34.685Z,102425.99
2017-12-03T07:28:03.009Z,102423.46
2017-12-03T07:30:32.093Z,102421.72
2017-12-03T07:33:00.415Z,102421.38
2017-12-03T07:35:28.756Z,102425.31
2017-12-03T07:37:57.079Z,102424.05
2017-12-03T07:40:25.383Z,102427.27
2017-12-03T07:42:53.708Z,102433.21
2017-12-03T07:45:22.129Z,102426.02
2017-12-03T07:47:50.513Z,102429.22
2017-12-03T07:50:18.813Z,102433.00
2017-12-03T07:52:47.111Z,102432.16
2017-12-03T07:55:15.419Z,102430.77
2017-12-03T07:57:44.499Z,102433.22
2017-12-03T08:00:14.322Z,102437.29
2017-12-03T08:02:42.707Z,102441.98
2017-12-03T08:05:11.781Z,102436.67
2017-12-03T08:07:40.120Z,102434.27
2017-12-03T08:10:08.463Z,102439.38
2017-12-03T08:12:36.793Z,102438.47
2017-12-03T08:15:05.103Z,102443.36
2017-12-03T08:17:33.439Z,102439.03
2017-12-03T08:20:01.745Z,102438.81
2017-12-03T08:22:30.062Z,102444.98
2017-12-03T08:24:58.413Z,102438.77
2017-12-03T08:27:26.733Z,102440.16
2017-12-03T08:29:55.049Z,102447.84
2017-12-03T08:32:23.343Z,102444.90
2017-12-03T08:34:52.486Z,102438.55
2017-12-03T08:37:21.133Z,102447.23
2017-12-03T08:39:49.445Z,102442.67
2017-12-03T08:42:17.808Z,102438.20
2017-12-03T08:44:46.219Z,102443.25
2017-12-03T08:47:15.261Z,102444.27
2017-12-03T08:49:44.543Z,102447.98
2017-12-03T08:52:13.647Z,102447.63
2017-12-03T08:54:46.903Z,102441.69
2017-12-03T08:57:16.095Z,102457.08
2017-12-03T08:59:44.409Z,102447.20
2017-12-03T09:02:13.537Z,102447.13
2017-12-03T09:04:41.861Z,102446.64
2017-12-03T09:07:10.180Z,102443.33
2017-12-03T09:09:39.261Z,102444.45
2017-12-03T09:12:07.645Z,102451.16
2017-12-03T09:14:36.804Z,102445.00
2017-12-03T09:17:05.119Z,102443.61
2017-12-03T09:19:33.429Z,102440.67
2017-12-03T09:22:01.741Z,102444.17
2017-12-03T09:24:30.044Z,102438.50
2017-12-03T09:26:58.353Z,102442.49
2017-12-03T09:29:27.417Z,102443.20
2017-12-03T09:31:55.750Z,102450.19
2017-12-03T09:34:24.073Z,102448.93
2017-12-03T09:36:52.369Z,102444.21
2017-12-03T09:39:20.709Z,102446.73
2017-12-03T09:41:49.015Z,102452.89
2017-12-03T09:44:17.385Z,102448.83
2017-12-03T09:46:45.743Z,102444.20
2017-12-03T09:49:14.094Z,102443.64
2017-12-03T09:51:42.395Z,102447.98
2017-12-03T09:54:10.718Z,102456.80
2017-12-03T09:56:39.039Z,102451.27
2017-12-03T09:59:08.455Z,102446.13
2017-12-03T10:01:37.535Z,102455.86
2017-12-03T10:04:05.843Z,102452.92
2017-12-03T10:06:34.232Z,102454.91
2017-12-03T10:09:02.531Z,102461.48
2017-12-03T10:11:30.843Z,102455.58
2017-12-03T10:13:59.149Z,102451.03
2017-12-03T10:16:27.519Z,102449.28
2017-12-03T10:18:55.868Z,102449.83
2017-12-03T10:21:25.725Z,102447.66
2017-12-03T10:23:54.033Z,102451.38
2017-12-03T10:26:22.360Z,102453.55
2017-12-03T10:28:50.773Z,102457.50
2017-12-03T10:31:20.597Z,102459.25
2017-12-03T10:33:48.930Z,102452.78
2017-12-03T10:36:17.245Z,102448.92
2017-12-03T10:38:46.381Z,102444.10
2017-12-03T10:41:15.487Z,102441.97
2017-12-03T10:43:43.805Z,102447.14
2017-12-03T10:46:12.115Z,102439.45
2017-12-03T10:48:41.217Z,102443.13
2017-12-03T10:51:10.322Z,102441.58
2017-12-03T10:53:38.666Z,102443.67
2017-12-03T10:56:06.989Z,102452.91
2017-12-03T10:58:36.479Z,102452.98
2017-12-03T11:01:05.087Z,102452.64
2017-12-03T11:03:34.239Z,102456.66
2017-12-03T11:06:03.075Z,102455.50
2017-12-03T11:08:31.932Z,102446.19
2017-12-03T11:11:01.701Z,102447.48
2017-12-03T11:13:30.729Z,102444.70
2017-12-03T11:15:59.155Z,102446.37
2017-12-03T11:18:28.372Z,102440.83
2017-12-03T11:20:56.730Z,102446.63
2017-12-03T11:23:25.025Z,102447.99
2017-12-03T11:25:53.412Z,102432.30
2017-12-03T11:28:21.765Z,102427.40
2017-12-03T11:30:50.957Z,102424.59
2017-12-03T11:33:21.646Z,102422.23
2017-12-03T11:35:51.044Z,102413.95
2017-12-03T11:38:19.380Z,102413.88
2017-12-03T11:40:49.205Z,102406.94
2017-12-03T11:43:17.565Z,102403.22
2017-12-03T11:45:45.912Z,102401.17
2017-12-03T11:48:14.232Z,102399.37
2017-12-03T11:50:43.306Z,102396.27
2017-12-03T11:53:11.611Z,102399.48
2017-12-03T11:55:40.694Z,102401.20
2017-12-03T11:58:09.011Z,102402.66
2017-12-03T12:00:38.150Z,102402.34
2017-12-03T12:03:06.849Z,102394.92
2017-12-03T12:05:35.170Z,102389.53
2017-12-03T12:08:04.244Z,102390.91
2017-12-03T12:10:33.321Z,102380.36
2017-12-03T12:13:01.755Z,102385.46
2017-12-03T12:15:30.114Z,102387.64
2017-12-03T12:17:58.449Z,102391.64
2017-12-03T12:20:27.082Z,102392.06
2017-12-03T12:22:55.434Z,102390.07
2017-12-03T12:25:23.757Z,102396.50
2017-12-03T12:27:52.888Z,102399.81
2017-12-03T12:30:21.996Z,102394.58
2017-12-03T12:32:51.064Z,102389.30
2017-12-03T12:35:19.430Z,102391.55
2017-12-03T12:37:47.760Z,102392.04
2017-12-03T12:40:16.108Z,102397.30
2017-12-03T12:42:45.237Z,102393.41
2017-12-03T12:45:13.588Z,102388.33
2017-12-03T12:47:42.048Z,102388.83
2017-12-03T12:50:10.352Z,102388.14
2017-12-03T12:52:38.717Z,102390.42
2017-12-03T12:55:07.049Z,102390.72
2017-12-03T12:57:35.372Z,102400.50
2017-12-03T13:00:03.702Z,102392.18
2017-12-03T13:02:32.202Z,102398.27
2017-12-03T13:05:00.523Z,102395.94
2017-12-03T13:07:28.942Z,102396.56
2017-12-03T13:09:58.056Z,102398.09
2017-12-03T13:12:26.410Z,102394.80
2017-12-03T13:14:54.763Z,102396.82
2017-12-03T13:17:23.084Z,102406.66
2017-12-03T13:19:51.404Z,102407.76
2017-12-03T13:22:19.723Z,102404.17
2017-12-03T13:24:48.062Z,102398.49
2017-12-03T13:27:16.361Z,102401.92
2017-12-03T13:29:44.688Z,102393.67
2017-12-03T13:32:13.014Z,102397.60
2017-12-03T13:34:41.390Z,102396.70
2017-12-03T13:37:09.828Z,102400.80
2017-12-03T13:39:38.260Z,102397.64
2017-12-03T13:42:06.588Z,102407.29
2017-12-03T13:44:35.728Z,102405.28
2017-12-03T13:47:04.078Z,102412.31
2017-12-03T13:49:32.410Z,102412.58
2017-12-03T13:52:00.760Z,102409.29
2017-12-03T13:54:29.844Z,102410.55
2017-12-03T13:56:58.161Z,102409.29
2017-12-03T13:59:26.547Z,102410.47
2017-12-03T14:01:55.580Z,102407.39
2017-12-03T14:04:23.938Z,102409.32
2017-12-03T14:06:52.246Z,102413.84
2017-12-03T14:09:20.608Z,102418.59
2017-12-03T14:11:48.922Z,102419.02
2017-12-03T14:14:17.242Z,102418.94
2017-12-03T14:16:45.603Z,102435.55
2017-12-03T14:19:13.956Z,102452.25
2017-12-03T14:21:42.262Z,102444.98
2017-12-03T14:24:11.442Z,102446.13
2017-12-03T14:26:39.832Z,102451.88
2017-12-03T14:29:09.808Z,102451.72
2017-12-03T14:31:38.718Z,102452.16
2017-12-03T14:34:07.028Z,102448.09
2017-12-03T14:36:35.395Z,102445.58
2017-12-03T14:39:03.726Z,102456.54
2017-12-03T14:41:32.079Z,102457.06
2017-12-03T14:44:01.154Z,102463.67
2017-12-03T14:46:29.487Z,102463.35
2017-12-03T14:48:57.790Z,102464.40
2017-12-03T14:51:26.112Z,102463.39
2017-12-03T14:53:54.440Z,102467.37
2017-12-03T14:56:22.767Z,102472.43
2017-12-03T14:58:51.126Z,102470.11
2017-12-03T15:01:19.427Z,102473.70
2017-12-03T15:03:48.512Z,102475.43
2017-12-03T15:06:16.827Z,102476.31
2017-12-03T15:08:47.102Z,102469.81
2017-12-03T15:11:15.418Z,102470.92
2017-12-03T15:13:43.737Z,102472.33
2017-12-03T15:16:12.068Z,102474.58
2017-12-03T15:18:40.403Z,102480.67
2017-12-03T15:21:08.720Z,102479.27
2017-12-03T15:23:37.178Z,102474.02
2017-12-03T15:26:05.494Z,102484.48
2017-12-03T15:28:33.956Z,102481.54
2017-12-03T15:31:02.278Z,102488.63
2017-12-03T15:33:31.461Z,102490.97
2017-12-03T15:35:59.778Z,102497.71
2017-12-03T15:38:28.862Z,102496.89
2017-12-03T15:40:57.952Z,102497.84
2017-12-03T15:43:26.402Z,102494.61
2017-12-03T15:45:54.764Z,102496.64
2017-12-03T15:48:23.191Z,102495.38
2017-12-03T15:50:51.499Z,102503.95
2017-12-03T15:53:20.599Z,102500.66
2017-12-03T15:55:49.678Z,102501.37
2017-12-03T15:58:18.786Z,102509.43
2017-12-03T16:00:48.101Z,102510.22
2017-12-03T16:03:17.178Z,102507.85
2017-12-03T16:05:46.273Z,102509.41
2017-12-03T16:08:15.349Z,102503.98
2017-12-03T16:10:43.672Z,102504.50
2017-12-03T16:13:12.801Z,102505.63
2017-12-03T16:15:41.132Z,102510.44
2017-12-03T16:18:10.192Z,102512.91
2017-12-03T16:20:38.507Z,102515.30
2017-12-03T16:23:06.827Z,102513.55
2017-12-03T16:25:35.959Z,102520.42
2017-12-03T16:28:04.285Z,102522.73
2017-12-03T16:30:32.600Z,102521.55
2017-12-03T16:33:00.926Z,102520.08
2017-12-03T16:35:29.955Z,102525.18
2017-12-03T16:37:59.036Z,102524.13
2017-12-03T16:40:28.112Z,102529.73
2017-12-03T16:42:56.688Z,102524.33
2017-12-03T16:45:25.042Z,102524.00
2017-12-03T16:47:53.371Z,102536.19
2017-12-03T16:50:23.222Z,102534.56
2017-12-03T16:52:52.328Z,102528.75
2017-12-03T16:55:20.644Z,102532.67
2017-12-03T16:57:49.062Z,102547.66
2017-12-03T17:00:17.375Z,102556.08
2017-12-03T17:02:45.673Z,102557.48
2017-12-03T17:05:13.987Z,102551.73
2017-12-03T17:07:42.297Z,102559.45
2017-12-03T17:10:10.645Z,102550.98
2017-12-03T17:12:38.972Z,102549.91
2017-12-03T17:15:08.063Z,102550.40
2017-12-03T17:17:37.184Z,102553.80
2017-12-03T17:20:05.525Z,102555.26
2017-12-03T17:22:33.880Z,102555.45
2017-12-03T17:25:02.177Z,102556.22
2017-12-03T17:27:30.517Z,102560.00
2017-12-03T17:29:58.823Z,102564.77
2017-12-03T17:32:27.190Z,102561.69
2017-12-03T17:34:55.507Z,102569.25
2017-12-03T17:37:24.573Z,102563.92
2017-12-03T17:39:52.889Z,102562.39
2017-12-03T17:42:21.984Z,102562.32
2017-12-03T17:44:51.801Z,102560.00
2017-12-03T17:47:20.143Z,102570.59
2017-12-03T17:49:48.465Z,102566.59
2017-12-03T17:52:17.709Z,102566.73
2017-12-03T17:54:46.054Z,102562.47
2017-12-03T17:57:15.149Z,102575.02
2017-12-03T17:59:44.287Z,102573.14
2017-12-03T18:02:12.603Z,102579.09
2017-12-03T18:04:40.936Z,102582.86
2017-12-03T18:07:09.253Z,102593.38
2017-12-03T18:09:37.583Z,102595.26
2017-12-03T18:12:05.891Z,102599.00
2017-12-03T18:14:34.191Z,102605.87
2017-12-03T18:17:02.602Z,102614.20
2017-12-03T18:19:30.942Z,102613.08
2017-12-03T18:21:59.260Z,102617.77
2017-12-03T18:24:27.560Z,102620.44
2017-12-03T18:26:55.863Z,102621.20
2017-12-03T18:29:24.195Z,102621.12
2017-12-03T18:31:52.498Z,102629.97
2017-12-03T18:34:20.851Z,102627.72
2017-12-03T18:36:49.171Z,102628.38
2017-12-03T18:39:17.511Z,102638.97
2017-12-03T18:41:45.848Z,102637.98
2017-12-03T18:44:14.202Z,102633.42
2017-12-03T18:46:42.535Z,102637.55
2017-12-03T18:49:10.822Z,102642.24
2017-12-03T18:51:39.153Z,102640.00
2017-12-03T18:54:07.473Z,102637.33
2017-12-03T18:56:35.995Z,102644.27
2017-12-03T18:59:04.309Z,102639.58
2017-12-03T19:01:32.652Z,102639.24
2017-12-03T19:04:00.971Z,102638.88
2017-12-03T19:06:30.059Z,102640.28
2017-12-03T19:08:58.385Z,102640.08
2017-12-03T19:11:26.713Z,102634.19
2017-12-03T19:13:55.177Z,102634.63
2017-12-03T19:16:23.529Z,102628.80
2017-12-03T19:18:51.857Z,102626.32
2017-12-03T19:21:20.167Z,102627.30
2017-12-03T19:23:49.280Z,102629.20
2017-12-03T19:26:18.540Z,102620.66
2017-12-03T19:28:47.138Z,102622.77
2017-12-03T19:31:15.479Z,102629.22
2017-12-03T19:33:43.850Z,102637.56
2017-12-03T19:36:12.153Z,102641.20
2017-12-03T19:38:40.626Z,102643.65
2017-12-03T19:41:08.956Z,102638.52
2017-12-03T19:43:37.296Z,102635.12
2017-12-03T19:46:05.583Z,102640.23
2017-12-03T19:48:33.911Z,102640.30
2017-12-03T19:51:02.976Z,102646.03
2017-12-03T19:53:32.395Z,102643.05
2017-12-03T19:56:01.517Z,102645.42
2017-12-03T19:58:29.832Z,102650.80
2017-12-03T20:00:59.123Z,102652.92
2017-12-03T20:03:27.438Z,102658.24
2017-12-03T20:05:56.021Z,102669.45
2017-12-03T20:08:24.366Z,102675.35
2017-12-03T20:10:52.683Z,102683.44
2017-12-03T20:13:21.011Z,102679.48
2017-12-03T20:15:49.460Z,102673.77
2017-12-03T20:18:19.982Z,102679.93
2017-12-03T20:20:48.817Z,102687.20
2017-12-03T20:23:17.886Z,102689.53
2017-12-03T20:25:46.244Z,102692.31
2017-12-03T20:28:14.551Z,102684.61
2017-12-03T20:30:42.853Z,102682.02
2017-12-03T20:33:11.910Z,102678.71
2017-12-03T20:35:40.229Z,102680.41
2017-12-03T20:38:09.322Z,102683.56
2017-12-03T20:40:38.396Z,102681.94
2017-12-03T20:43:07.462Z,102675.70
2017-12-03T20:45:35.794Z,102681.24
2017-12-03T20:48:04.117Z,102675.78
2017-12-03T20:50:32.469Z,102676.34
2017-12-03T20:53:01.561Z,102687.33
2017-12-03T20:55:30.670Z,102688.17
2017-12-03T20:57:59.905Z,102690.14
2017-12-03T21:00:28.295Z,102683.17
2017-12-03T21:02:56.609Z,102694.17
2017-12-03T21:05:24.933Z,102699.72
2017-12-03T21:07:53.233Z,102701.12
2017-12-03T21:10:21.554Z,102698.03
2017-12-03T21:12:49.865Z,102703.36
2017-12-03T21:15:18.989Z,102705.47
2017-12-03T21:17:47.318Z,102698.88
2017-12-03T21:20:17.176Z,102691.73
2017-12-03T21:22:45.655Z,102700.56
2017-12-03T21:25:13.948Z,102707.50
2017-12-03T21:27:42.324Z,102705.53
2017-12-03T21:30:10.645Z,102705.81
2017-12-03T21:32:38.958Z,102700.27
2017-12-03T21:35:08.066Z,102704.55
2017-12-03T21:37:37.157Z,102702.72
2017-12-03T21:40:06.300Z,102698.66
2017-12-03T21:42:34.603Z,102709.14
2017-12-03T21:45:02.934Z,102703.25
2017-12-03T21:47:31.232Z,102716.78
2017-12-03T21:49:59.526Z,102710.05
2017-12-03T21:52:27.832Z,102714.88
2017-12-03T21:54:56.144Z,102710.74
2017-12-03T21:57:25.222Z,102704.78
2017-12-03T21:59:54.276Z,102709.20
2017-12-03T22:02:22.600Z,102719.22
2017-12-03T22:04:51.710Z,102712.56
2017-12-03T22:07:20.795Z,102710.25
2017-12-03T22:09:49.092Z,102711.05
2017-12-03T22:12:18.195Z,102712.73
2017-12-03T22:14:47.280Z,102715.19
2017-12-03T22:17:16.356Z,102714.55
2017-12-03T22:19:45.448Z,102721.00
2017-12-03T22:22:13.758Z,102725.13
2017-12-03T22:24:42.100Z,102735.63
2017-12-03T22:27:10.523Z,102740.92
2017-12-03T22:29:38.843Z,102746.19
2017-12-03T22:32:07.154Z,102743.10
2017-12-03T22:34:35.530Z,102743.17
2017-12-03T22:37:03.863Z,102755.44
2017-12-03T22:39:32.948Z,102752.42
2017-12-03T22:42:01.518Z,102753.16
2017-12-03T22:44:29.833Z,102758.09
2017-12-03T22:46:58.890Z,102751.09
2017-12-03T22:49:27.202Z,102755.02
2017-12-03T22:51:56.296Z,102762.86
2017-12-03T22:54:25.414Z,102753.05
2017-12-03T22:56:53.732Z,102759.46
2017-12-03T22:59:22.055Z,102766.89
2017-12-03T23:01:51.146Z,102767.31
2017-12-03T23:04:19.466Z,102773.91
2017-12-03T23:06:47.768Z,102777.27
2017-12-03T23:09:16.074Z,102770.47
2017-12-03T23:11:44.420Z,102776.64
2017-12-03T23:14:12.736Z,102777.83
2017-12-03T23:16:41.046Z,102772.36
2017-12-03T23:19:10.120Z,102776.29
2017-12-03T23:21:38.427Z,102776.36
2017-12-03T23:24:07.505Z,102773.77
2017-12-03T23:26:36.594Z,102770.05
2017-12-03T23:29:04.926Z,102779.87
2017-12-03T23:31:33.256Z,102794.31
2017-12-03T23:34:02.328Z,102786.67
2017-12-03T23:36:30.636Z,102796.59
2017-12-03T23:38:58.948Z,102796.17
2017-12-03T23:41:28.016Z,102791.58
2017-12-03T23:43:56.340Z,102796.45
2017-12-03T23:46:24.664Z,102783.20
2017-12-03T23:48:52.984Z,102775.55
2017-12-03T23:51:22.053Z,102781.80
2017-12-03T23:53:50.425Z,102779.22
2017-12-03T23:56:18.766Z,102786.79
2017-12-03T23:58:47.084Z,102781.46
